sensor_id;sensor_type;location;lat;lon;timestamp;pressure;altitude;pressure_sealevel;temperature
49593;BMP280;35499;51.482;4.264;2024-01-27T00:01:14;103468.00;;;4.53
49593;BMP280;35499;51.482;4.264;2024-01-27T00:03:40;103467.81;;;4.50
49593;BMP280;35499;51.482;4.264;2024-01-27T00:06:05;103468.56;;;4.47
49593;BMP280;35499;51.482;4.264;2024-01-27T00:08:30;103478.75;;;4.47
49593;BMP280;35499;51.482;4.264;2024-01-27T00:10:55;103470.13;;;4.46
49593;BMP280;35499;51.482;4.264;2024-01-27T00:13:21;103461.72;;;4.46
49593;BMP280;35499;51.482;4.264;2024-01-27T00:15:46;103467.50;;;4.44
49593;BMP280;35499;51.482;4.264;2024-01-27T00:18:12;103471.72;;;4.44
49593;BMP280;35499;51.482;4.264;2024-01-27T00:20:37;103486.06;;;4.42
49593;BMP280;35499;51.482;4.264;2024-01-27T00:23:03;103477.63;;;4.43
49593;BMP280;35499;51.482;4.264;2024-01-27T00:25:29;103475.13;;;4.44
49593;BMP280;35499;51.482;4.264;2024-01-27T00:27:54;103470.88;;;4.43
49593;BMP280;35499;51.482;4.264;2024-01-27T00:30:19;103466.56;;;4.42
49593;BMP280;35499;51.482;4.264;2024-01-27T00:32:45;103472.44;;;4.41
49593;BMP280;35499;51.482;4.264;2024-01-27T00:35:10;103459.81;;;4.43
49593;BMP280;35499;51.482;4.264;2024-01-27T00:37:39;103466.63;;;4.44
49593;BMP280;35499;51.482;4.264;2024-01-27T00:40:08;103468.56;;;4.47
49593;BMP280;35499;51.482;4.264;2024-01-27T00:42:33;103463.75;;;4.53
49593;BMP280;35499;51.482;4.264;2024-01-27T00:44:58;103467.13;;;4.52
49593;BMP280;35499;51.482;4.264;2024-01-27T00:47:24;103481.50;;;4.52
49593;BMP280;35499;51.482;4.264;2024-01-27T00:49:49;103485.63;;;4.50
49593;BMP280;35499;51.482;4.264;2024-01-27T00:52:14;103478.88;;;4.50
49593;BMP280;35499;51.482;4.264;2024-01-27T00:54:40;103480.63;;;4.51
49593;BMP280;35499;51.482;4.264;2024-01-27T00:57:05;103483.81;;;4.47
49593;BMP280;35499;51.482;4.264;2024-01-27T00:59:30;103478.75;;;4.47
49593;BMP280;35499;51.482;4.264;2024-01-27T01:01:55;103469.50;;;4.49
49593;BMP280;35499;51.482;4.264;2024-01-27T01:04:21;103466.94;;;4.49
49593;BMP280;35499;51.482;4.264;2024-01-27T01:06:47;103479.75;;;4.51
49593;BMP280;35499;51.482;4.264;2024-01-27T01:09:12;103477.13;;;4.49
49593;BMP280;35499;51.482;4.264;2024-01-27T01:11:38;103486.50;;;4.50
49593;BMP280;35499;51.482;4.264;2024-01-27T01:14:04;103486.50;;;4.50
49593;BMP280;35499;51.482;4.264;2024-01-27T01:16:29;103480.41;;;4.47
49593;BMP280;35499;51.482;4.264;2024-01-27T01:18:54;103482.78;;;4.44
49593;BMP280;35499;51.482;4.264;2024-01-27T01:21:20;103495.44;;;4.43
49593;BMP280;35499;51.482;4.264;2024-01-27T01:23:45;103485.09;;;4.40
49593;BMP280;35499;51.482;4.264;2024-01-27T01:26:10;103480.72;;;4.37
49593;BMP280;35499;51.482;4.264;2024-01-27T01:28:36;103484.16;;;4.38
49593;BMP280;35499;51.482;4.264;2024-01-27T01:31:02;103483.41;;;4.40
49593;BMP280;35499;51.482;4.264;2024-01-27T01:33:27;103484.28;;;4.41
49593;BMP280;35499;51.482;4.264;2024-01-27T01:35:53;103476.66;;;4.41
49593;BMP280;35499;51.482;4.264;2024-01-27T01:38:18;103471.44;;;4.38
49593;BMP280;35499;51.482;4.264;2024-01-27T01:40:43;103483.19;;;4.36
49593;BMP280;35499;51.482;4.264;2024-01-27T01:43:12;103476.19;;;4.32
49593;BMP280;35499;51.482;4.264;2024-01-27T01:45:37;103480.19;;;4.27
49593;BMP280;35499;51.482;4.264;2024-01-27T01:48:03;103471.50;;;4.24
49593;BMP280;35499;51.482;4.264;2024-01-27T01:50:29;103477.31;;;4.21
49593;BMP280;35499;51.482;4.264;2024-01-27T01:52:55;103474.63;;;4.18
49593;BMP280;35499;51.482;4.264;2024-01-27T01:55:20;103474.53;;;4.17
49593;BMP280;35499;51.482;4.264;2024-01-27T01:57:46;103476.19;;;4.16
49593;BMP280;35499;51.482;4.264;2024-01-27T02:00:12;103474.69;;;4.20
49593;BMP280;35499;51.482;4.264;2024-01-27T02:02:38;103468.81;;;4.21
49593;BMP280;35499;51.482;4.264;2024-01-27T02:05:03;103466.13;;;4.18
49593;BMP280;35499;51.482;4.264;2024-01-27T02:07:29;103468.56;;;4.16
49593;BMP280;35499;51.482;4.264;2024-01-27T02:09:54;103471.91;;;4.15
49593;BMP280;35499;51.482;4.264;2024-01-27T02:12:19;103475.22;;;4.14
49593;BMP280;35499;51.482;4.264;2024-01-27T02:14:45;103476.97;;;4.15
49593;BMP280;35499;51.482;4.264;2024-01-27T02:17:10;103472.69;;;4.14
49593;BMP280;35499;51.482;4.264;2024-01-27T02:19:35;103476.84;;;4.12
49593;BMP280;35499;51.482;4.264;2024-01-27T02:22:00;103485.91;;;4.08
49593;BMP280;35499;51.482;4.264;2024-01-27T02:24:26;103483.38;;;3.93
49593;BMP280;35499;51.482;4.264;2024-01-27T02:26:53;103483.31;;;3.76
49593;BMP280;35499;51.482;4.264;2024-01-27T02:29:18;103489.13;;;3.60
49593;BMP280;35499;51.482;4.264;2024-01-27T02:31:44;103488.28;;;3.45
49593;BMP280;35499;51.482;4.264;2024-01-27T02:34:10;103488.41;;;3.33
49593;BMP280;35499;51.482;4.264;2024-01-27T02:36:35;103497.88;;;3.21
49593;BMP280;35499;51.482;4.264;2024-01-27T02:39:00;103496.28;;;3.09
49593;BMP280;35499;51.482;4.264;2024-01-27T02:41:26;103501.22;;;3.06
49593;BMP280;35499;51.482;4.264;2024-01-27T02:43:52;103509.34;;;3.01
49593;BMP280;35499;51.482;4.264;2024-01-27T02:46:17;103507.28;;;2.94
49593;BMP280;35499;51.482;4.264;2024-01-27T02:48:44;103516.34;;;2.90
49593;BMP280;35499;51.482;4.264;2024-01-27T02:51:09;103508.47;;;2.86
49593;BMP280;35499;51.482;4.264;2024-01-27T02:53:34;103504.97;;;2.84
49593;BMP280;35499;51.482;4.264;2024-01-27T02:56:00;103509.97;;;2.83
49593;BMP280;35499;51.482;4.264;2024-01-27T02:58:26;103502.25;;;2.81
49593;BMP280;35499;51.482;4.264;2024-01-27T03:00:51;103505.56;;;2.80
49593;BMP280;35499;51.482;4.264;2024-01-27T03:03:16;103519.84;;;2.78
49593;BMP280;35499;51.482;4.264;2024-01-27T03:05:42;103508.91;;;2.79
49593;BMP280;35499;51.482;4.264;2024-01-27T03:08:07;103514.78;;;2.78
49593;BMP280;35499;51.482;4.264;2024-01-27T03:10:33;103503.56;;;2.75
49593;BMP280;35499;51.482;4.264;2024-01-27T03:12:58;103517.72;;;2.71
49593;BMP280;35499;51.482;4.264;2024-01-27T03:15:23;103509.97;;;2.68
49593;BMP280;35499;51.482;4.264;2024-01-27T03:17:48;103510.38;;;2.62
49593;BMP280;35499;51.482;4.264;2024-01-27T03:20:14;103506.84;;;2.60
49593;BMP280;35499;51.482;4.264;2024-01-27T03:22:39;103509.75;;;2.66
49593;BMP280;35499;51.482;4.264;2024-01-27T03:25:06;103513.63;;;2.73
49593;BMP280;35499;51.482;4.264;2024-01-27T03:27:32;103517.38;;;2.80
49593;BMP280;35499;51.482;4.264;2024-01-27T03:30:00;103513.38;;;2.83
49593;BMP280;35499;51.482;4.264;2024-01-27T03:32:26;103516.88;;;2.85
49593;BMP280;35499;51.482;4.264;2024-01-27T03:34:52;103515.09;;;2.84
49593;BMP280;35499;51.482;4.264;2024-01-27T03:37:17;103516.50;;;2.79
49593;BMP280;35499;51.482;4.264;2024-01-27T03:39:42;103506.81;;;2.72
49593;BMP280;35499;51.482;4.264;2024-01-27T03:42:08;103503.91;;;2.67
49593;BMP280;35499;51.482;4.264;2024-01-27T03:44:33;103508.63;;;2.61
49593;BMP280;35499;51.482;4.264;2024-01-27T03:46:58;103510.88;;;2.56
49593;BMP280;35499;51.482;4.264;2024-01-27T03:49:24;103514.81;;;2.51
49593;BMP280;35499;51.482;4.264;2024-01-27T03:51:49;103525.56;;;2.48
49593;BMP280;35499;51.482;4.264;2024-01-27T03:54:14;103517.69;;;2.43
49593;BMP280;35499;51.482;4.264;2024-01-27T03:56:41;103504.75;;;2.39
49593;BMP280;35499;51.482;4.264;2024-01-27T03:59:06;103506.19;;;2.35
49593;BMP280;35499;51.482;4.264;2024-01-27T04:01:34;103512.03;;;2.34
49593;BMP280;35499;51.482;4.264;2024-01-27T04:03:59;103517.13;;;2.34
49593;BMP280;35499;51.482;4.264;2024-01-27T04:06:25;103507.84;;;2.35
49593;BMP280;35499;51.482;4.264;2024-01-27T04:08:50;103510.50;;;2.36
49593;BMP280;35499;51.482;4.264;2024-01-27T04:11:22;103509.63;;;2.36
49593;BMP280;35499;51.482;4.264;2024-01-27T04:13:48;103520.63;;;2.36
49593;BMP280;35499;51.482;4.264;2024-01-27T04:16:14;103519.75;;;2.36
49593;BMP280;35499;51.482;4.264;2024-01-27T04:18:39;103516.44;;;2.37
49593;BMP280;35499;51.482;4.264;2024-01-27T04:21:05;103517.31;;;2.37
49593;BMP280;35499;51.482;4.264;2024-01-27T04:23:30;103517.31;;;2.37
49593;BMP280;35499;51.482;4.264;2024-01-27T04:25:55;103510.50;;;2.36
49593;BMP280;35499;51.482;4.264;2024-01-27T04:28:20;103503.59;;;2.34
49593;BMP280;35499;51.482;4.264;2024-01-27T04:30:46;103502.78;;;2.35
49593;BMP280;35499;51.482;4.264;2024-01-27T04:33:12;103518.19;;;2.38
49593;BMP280;35499;51.482;4.264;2024-01-27T04:35:37;103515.72;;;2.39
49593;BMP280;35499;51.482;4.264;2024-01-27T04:38:03;103515.72;;;2.39
49593;BMP280;35499;51.482;4.264;2024-01-27T04:40:28;103512.25;;;2.37
49593;BMP280;35499;51.482;4.264;2024-01-27T04:42:54;103510.31;;;2.33
49593;BMP280;35499;51.482;4.264;2024-01-27T04:45:19;103511.00;;;2.31
49593;BMP280;35499;51.482;4.264;2024-01-27T04:47:44;103504.88;;;2.28
49593;BMP280;35499;51.482;4.264;2024-01-27T04:50:10;103503.91;;;2.26
49593;BMP280;35499;51.482;4.264;2024-01-27T04:52:35;103494.53;;;2.25
49593;BMP280;35499;51.482;4.264;2024-01-27T04:55:01;103494.25;;;2.20
49593;BMP280;35499;51.482;4.264;2024-01-27T04:57:27;103497.50;;;2.18
49593;BMP280;35499;51.482;4.264;2024-01-27T04:59:52;103488.03;;;2.15
49593;BMP280;35499;51.482;4.264;2024-01-27T05:02:21;103492.06;;;2.12
49593;BMP280;35499;51.482;4.264;2024-01-27T05:04:46;103512.34;;;2.12
49593;BMP280;35499;51.482;4.264;2024-01-27T05:07:11;103502.03;;;2.09
49593;BMP280;35499;51.482;4.264;2024-01-27T05:09:37;103503.59;;;2.07
49593;BMP280;35499;51.482;4.264;2024-01-27T05:12:02;103493.44;;;2.07
49593;BMP280;35499;51.482;4.264;2024-01-27T05:14:28;103489.44;;;2.11
49593;BMP280;35499;51.482;4.264;2024-01-27T05:16:53;103492.22;;;2.15
49593;BMP280;35499;51.482;4.264;2024-01-27T05:19:18;103490.06;;;2.21
49593;BMP280;35499;51.482;4.264;2024-01-27T05:21:44;103501.38;;;2.26
49593;BMP280;35499;51.482;4.264;2024-01-27T05:24:09;103494.75;;;2.28
49593;BMP280;35499;51.482;4.264;2024-01-27T05:26:35;103497.44;;;2.31
49593;BMP280;35499;51.482;4.264;2024-01-27T05:29:00;103498.41;;;2.32
49593;BMP280;35499;51.482;4.264;2024-01-27T05:31:26;103493.44;;;2.34
49593;BMP280;35499;51.482;4.264;2024-01-27T05:33:51;103493.53;;;2.35
49593;BMP280;35499;51.482;4.264;2024-01-27T05:36:16;103491.75;;;2.34
49593;BMP280;35499;51.482;4.264;2024-01-27T05:38:42;103484.97;;;2.33
49593;BMP280;35499;51.482;4.264;2024-01-27T05:41:07;103483.88;;;2.30
49593;BMP280;35499;51.482;4.264;2024-01-27T05:43:32;103473.56;;;2.27
49593;BMP280;35499;51.482;4.264;2024-01-27T05:45:58;103486.94;;;2.25
49593;BMP280;35499;51.482;4.264;2024-01-27T05:48:23;103497.69;;;2.21
49593;BMP280;35499;51.482;4.264;2024-01-27T05:50:56;103496.72;;;2.19
49593;BMP280;35499;51.482;4.264;2024-01-27T05:53:21;103504.84;;;2.14
49593;BMP280;35499;51.482;4.264;2024-01-27T05:55:47;103493.81;;;2.13
49593;BMP280;35499;51.482;4.264;2024-01-27T05:58:12;103490.31;;;2.11
49593;BMP280;35499;51.482;4.264;2024-01-27T06:00:37;103494.69;;;2.14
49593;BMP280;35499;51.482;4.264;2024-01-27T06:03:03;103497.50;;;2.18
49593;BMP280;35499;51.482;4.264;2024-01-27T06:05:28;103489.13;;;2.19
49593;BMP280;35499;51.482;4.264;2024-01-27T06:07:54;103489.13;;;2.19
49593;BMP280;35499;51.482;4.264;2024-01-27T06:10:19;103490.84;;;2.20
49593;BMP280;35499;51.482;4.264;2024-01-27T06:12:45;103496.03;;;2.21
49593;BMP280;35499;51.482;4.264;2024-01-27T06:15:10;103493.50;;;2.21
49593;BMP280;35499;51.482;4.264;2024-01-27T06:17:36;103502.13;;;2.25
49593;BMP280;35499;51.482;4.264;2024-01-27T06:20:01;103495.50;;;2.27
49593;BMP280;35499;51.482;4.264;2024-01-27T06:22:26;103498.22;;;2.30
49593;BMP280;35499;51.482;4.264;2024-01-27T06:24:52;103502.72;;;2.33
49593;BMP280;35499;51.482;4.264;2024-01-27T06:27:17;103502.97;;;2.38
49593;BMP280;35499;51.482;4.264;2024-01-27T06:29:42;103502.28;;;2.40
49593;BMP280;35499;51.482;4.264;2024-01-27T06:32:09;103510.88;;;2.42
49593;BMP280;35499;51.482;4.264;2024-01-27T06:34:34;103518.47;;;2.42
49593;BMP280;35499;51.482;4.264;2024-01-27T06:36:59;103514.00;;;2.38
49593;BMP280;35499;51.482;4.264;2024-01-27T06:39:25;103518.38;;;2.41
49593;BMP280;35499;51.482;4.264;2024-01-27T06:41:51;103514.00;;;2.38
49593;BMP280;35499;51.482;4.264;2024-01-27T06:44:16;103508.22;;;2.41
49593;BMP280;35499;51.482;4.264;2024-01-27T06:46:41;103505.19;;;2.46
49593;BMP280;35499;51.482;4.264;2024-01-27T06:49:06;103494.16;;;2.46
49593;BMP280;35499;51.482;4.264;2024-01-27T06:51:32;103501.66;;;2.44
49593;BMP280;35499;51.482;4.264;2024-01-27T06:53:57;103509.09;;;2.41
49593;BMP280;35499;51.482;4.264;2024-01-27T06:56:22;103500.53;;;2.39
49593;BMP280;35499;51.482;4.264;2024-01-27T06:58:47;103500.34;;;2.36
49593;BMP280;35499;51.482;4.264;2024-01-27T07:01:13;103501.91;;;2.34
49593;BMP280;35499;51.482;4.264;2024-01-27T07:03:38;103497.66;;;2.33
49593;BMP280;35499;51.482;4.264;2024-01-27T07:06:06;103495.78;;;2.31
49593;BMP280;35499;51.482;4.264;2024-01-27T07:08:32;103500.47;;;2.25
49593;BMP280;35499;51.482;4.264;2024-01-27T07:10:58;103504.34;;;2.19
49593;BMP280;35499;51.482;4.264;2024-01-27T07:13:23;103512.34;;;2.12
49593;BMP280;35499;51.482;4.264;2024-01-27T07:15:48;103518.09;;;2.10
49593;BMP280;35499;51.482;4.264;2024-01-27T07:18:13;103512.16;;;2.09
49593;BMP280;35499;51.482;4.264;2024-01-27T07:20:40;103508.66;;;2.07
49593;BMP280;35499;51.482;4.264;2024-01-27T07:23:05;103506.88;;;2.06
49593;BMP280;35499;51.482;4.264;2024-01-27T07:25:31;103511.19;;;2.07
49593;BMP280;35499;51.482;4.264;2024-01-27T07:27:57;103510.41;;;2.08
49593;BMP280;35499;51.482;4.264;2024-01-27T07:30:22;103506.28;;;2.10
49593;BMP280;35499;51.482;4.264;2024-01-27T07:32:48;103502.19;;;2.12
49593;BMP280;35499;51.482;4.264;2024-01-27T07:35:13;103502.97;;;2.11
49593;BMP280;35499;51.482;4.264;2024-01-27T07:37:38;103505.41;;;2.10
49593;BMP280;35499;51.482;4.264;2024-01-27T07:40:05;103514.97;;;2.14
49593;BMP280;35499;51.482;4.264;2024-01-27T07:42:30;103512.88;;;2.21
49593;BMP280;35499;51.482;4.264;2024-01-27T07:44:56;103506.44;;;2.26
49593;BMP280;35499;51.482;4.264;2024-01-27T07:47:21;103507.50;;;2.29
49593;BMP280;35499;51.482;4.264;2024-01-27T07:49:46;103509.50;;;2.34
49593;BMP280;35499;51.482;4.264;2024-01-27T07:52:13;103503.88;;;2.38
49593;BMP280;35499;51.482;4.264;2024-01-27T07:54:39;103510.88;;;2.42
49593;BMP280;35499;51.482;4.264;2024-01-27T07:57:05;103511.03;;;2.45
49593;BMP280;35499;51.482;4.264;2024-01-27T07:59:31;103506.16;;;2.48
49593;BMP280;35499;51.482;4.264;2024-01-27T08:01:56;103519.78;;;2.50
49593;BMP280;35499;51.482;4.264;2024-01-27T08:04:21;103525.22;;;2.56
49593;BMP280;35499;51.482;4.264;2024-01-27T08:06:48;103518.59;;;2.58
49593;BMP280;35499;51.482;4.264;2024-01-27T08:09:14;103518.88;;;2.62
49593;BMP280;35499;51.482;4.264;2024-01-27T08:11:40;103513.19;;;2.66
49593;BMP280;35499;51.482;4.264;2024-01-27T08:14:05;103516.69;;;2.68
49593;BMP280;35499;51.482;4.264;2024-01-27T08:16:30;103520.38;;;2.73
49593;BMP280;35499;51.482;4.264;2024-01-27T08:18:55;103529.03;;;2.76
49593;BMP280;35499;51.482;4.264;2024-01-27T08:21:21;103526.75;;;2.81
49593;BMP280;35499;51.482;4.264;2024-01-27T08:23:46;103518.47;;;2.83
49593;BMP280;35499;51.482;4.264;2024-01-27T08:26:12;103516.97;;;2.86
49593;BMP280;35499;51.482;4.264;2024-01-27T08:28:37;103525.47;;;2.87
49593;BMP280;35499;51.482;4.264;2024-01-27T08:31:03;103524.06;;;2.92
49593;BMP280;35499;51.482;4.264;2024-01-27T08:33:28;103523.63;;;2.99
49593;BMP280;35499;51.482;4.264;2024-01-27T08:35:54;103517.22;;;3.05
49593;BMP280;35499;51.482;4.264;2024-01-27T08:38:19;103525.28;;;3.12
49593;BMP280;35499;51.482;4.264;2024-01-27T08:40:44;103535.09;;;3.21
49593;BMP280;35499;51.482;4.264;2024-01-27T08:43:10;103527.91;;;3.28
49593;BMP280;35499;51.482;4.264;2024-01-27T08:45:37;103526.66;;;3.36
49593;BMP280;35499;51.482;4.264;2024-01-27T08:48:02;103525.44;;;3.43
49593;BMP280;35499;51.482;4.264;2024-01-27T08:50:27;103513.69;;;3.45
49593;BMP280;35499;51.482;4.264;2024-01-27T08:52:53;103517.88;;;3.45
49593;BMP280;35499;51.482;4.264;2024-01-27T08:55:18;103522.97;;;3.45
49593;BMP280;35499;51.482;4.264;2024-01-27T08:57:47;103518.78;;;3.45
49593;BMP280;35499;51.482;4.264;2024-01-27T09:00:13;103524.88;;;3.49
49593;BMP280;35499;51.482;4.264;2024-01-27T09:02:40;103524.44;;;3.56
49593;BMP280;35499;51.482;4.264;2024-01-27T09:05:05;103530.91;;;3.65
49593;BMP280;35499;51.482;4.264;2024-01-27T09:07:33;103533.50;;;3.80
49593;BMP280;35499;51.482;4.264;2024-01-27T09:09:58;103520.56;;;4.21
49593;BMP280;35499;51.482;4.264;2024-01-27T09:12:23;103518.88;;;5.01
49593;BMP280;35499;51.482;4.264;2024-01-27T09:14:49;103523.47;;;5.91
49593;BMP280;35499;51.482;4.264;2024-01-27T09:17:17;103517.31;;;6.79
49593;BMP280;35499;51.482;4.264;2024-01-27T09:19:42;103506.47;;;7.64
49593;BMP280;35499;51.482;4.264;2024-01-27T09:22:08;103515.38;;;8.38
49593;BMP280;35499;51.482;4.264;2024-01-27T09:24:33;103534.78;;;9.00
49593;BMP280;35499;51.482;4.264;2024-01-27T09:26:58;103551.44;;;9.61
49593;BMP280;35499;51.482;4.264;2024-01-27T09:29:24;103552.22;;;10.10
49593;BMP280;35499;51.482;4.264;2024-01-27T09:31:49;103551.47;;;10.70
49593;BMP280;35499;51.482;4.264;2024-01-27T09:34:14;103555.91;;;11.07
49593;BMP280;35499;51.482;4.264;2024-01-27T09:36:39;103555.38;;;11.18
49593;BMP280;35499;51.482;4.264;2024-01-27T09:39:05;103563.22;;;11.54
49593;BMP280;35499;51.482;4.264;2024-01-27T09:41:31;103560.72;;;11.91
49593;BMP280;35499;51.482;4.264;2024-01-27T09:44:01;103564.28;;;12.34
49593;BMP280;35499;51.482;4.264;2024-01-27T09:46:28;103560.97;;;12.39
49593;BMP280;35499;51.482;4.264;2024-01-27T09:48:53;103564.78;;;12.57
49593;BMP280;35499;51.482;4.264;2024-01-27T09:51:19;103562.06;;;12.88
49593;BMP280;35499;51.482;4.264;2024-01-27T09:53:44;103577.06;;;13.08
49593;BMP280;35499;51.482;4.264;2024-01-27T09:56:10;103564.94;;;13.49
49593;BMP280;35499;51.482;4.264;2024-01-27T09:58:37;103586.00;;;13.76
49593;BMP280;35499;51.482;4.264;2024-01-27T10:04:32;103588.75;;;14.38
49593;BMP280;35499;51.482;4.264;2024-01-27T10:06:58;103581.28;;;14.58
49593;BMP280;35499;51.482;4.264;2024-01-27T10:09:24;103577.25;;;14.79
49593;BMP280;35499;51.482;4.264;2024-01-27T10:11:49;103571.66;;;15.17
49593;BMP280;35499;51.482;4.264;2024-01-27T10:14:15;103587.59;;;15.57
49593;BMP280;35499;51.482;4.264;2024-01-27T10:16:44;103580.91;;;15.86
49593;BMP280;35499;51.482;4.264;2024-01-27T10:19:15;103570.88;;;16.29
49593;BMP280;35499;51.482;4.264;2024-01-27T10:21:47;103580.44;;;16.33
49593;BMP280;35499;51.482;4.264;2024-01-27T10:24:14;103584.75;;;16.37
49593;BMP280;35499;51.482;4.264;2024-01-27T10:26:39;103583.03;;;16.41
49593;BMP280;35499;51.482;4.264;2024-01-27T10:29:05;103582.19;;;16.45
49593;BMP280;35499;51.482;4.264;2024-01-27T10:31:34;103578.06;;;16.83
49593;BMP280;35499;51.482;4.264;2024-01-27T10:34:01;103581.66;;;17.20
49593;BMP280;35499;51.482;4.264;2024-01-27T10:36:37;103567.81;;;17.36
49593;BMP280;35499;51.482;4.264;2024-01-27T10:39:13;103566.97;;;17.23
49593;BMP280;35499;51.482;4.264;2024-01-27T10:41:39;103581.66;;;17.17
49593;BMP280;35499;51.482;4.264;2024-01-27T10:44:06;103586.88;;;17.27
49593;BMP280;35499;51.482;4.264;2024-01-27T10:46:32;103582.56;;;17.37
49593;BMP280;35499;51.482;4.264;2024-01-27T10:48:59;103583.47;;;17.82
49593;BMP280;35499;51.482;4.264;2024-01-27T10:51:31;103579.13;;;17.90
49593;BMP280;35499;51.482;4.264;2024-01-27T10:54:02;103573.91;;;18.10
49593;BMP280;35499;51.482;4.264;2024-01-27T10:56:30;103566.09;;;18.05
49593;BMP280;35499;51.482;4.264;2024-01-27T10:58:57;103570.47;;;17.97
49593;BMP280;35499;51.482;4.264;2024-01-27T11:01:24;103561.75;;;18.15
49593;BMP280;35499;51.482;4.264;2024-01-27T11:03:52;103564.34;;;18.21
49593;BMP280;35499;51.482;4.264;2024-01-27T11:06:19;103568.69;;;18.22
49593;BMP280;35499;51.482;4.264;2024-01-27T11:08:47;103580.84;;;18.16
49593;BMP280;35499;51.482;4.264;2024-01-27T11:11:14;103569.56;;;17.99
49593;BMP280;35499;51.482;4.264;2024-01-27T11:13:39;103574.81;;;17.98
49593;BMP280;35499;51.482;4.264;2024-01-27T11:16:05;103566.97;;;17.72
49593;BMP280;35499;51.482;4.264;2024-01-27T11:18:31;103566.97;;;17.50
49593;BMP280;35499;51.482;4.264;2024-01-27T11:20:58;103574.78;;;17.48
49593;BMP280;35499;51.482;4.264;2024-01-27T11:23:34;103582.56;;;17.50
49593;BMP280;35499;51.482;4.264;2024-01-27T11:26:07;103581.69;;;17.38
49593;BMP280;35499;51.482;4.264;2024-01-27T11:28:32;103576.38;;;16.94
49593;BMP280;35499;51.482;4.264;2024-01-27T11:30:58;103581.34;;;16.47
49593;BMP280;35499;51.482;4.264;2024-01-27T11:33:28;103577.75;;;16.19
49593;BMP280;35499;51.482;4.264;2024-01-27T11:36:01;103562.25;;;16.32
49593;BMP280;35499;51.482;4.264;2024-01-27T11:38:27;103556.25;;;16.45
49593;BMP280;35499;51.482;4.264;2024-01-27T11:40:52;103568.31;;;16.32
49593;BMP280;35499;51.482;4.264;2024-01-27T11:43:18;103554.31;;;16.07
49593;BMP280;35499;51.482;4.264;2024-01-27T11:45:43;103558.41;;;15.79
49593;BMP280;35499;51.482;4.264;2024-01-27T11:48:09;103552.16;;;15.55
49593;BMP280;35499;51.482;4.264;2024-01-27T11:50:34;103550.94;;;15.20
49593;BMP280;35499;51.482;4.264;2024-01-27T11:53:00;103556.91;;;15.11
49593;BMP280;35499;51.482;4.264;2024-01-27T11:55:25;103558.75;;;15.22
49593;BMP280;35499;51.482;4.264;2024-01-27T11:57:50;103551.03;;;15.27
49593;BMP280;35499;51.482;4.264;2024-01-27T12:00:16;103547.78;;;15.47
49593;BMP280;35499;51.482;4.264;2024-01-27T12:02:42;103549.44;;;15.42
49593;BMP280;35499;51.482;4.264;2024-01-27T12:05:10;103542.47;;;15.35
49593;BMP280;35499;51.482;4.264;2024-01-27T12:07:35;103535.53;;;15.34
49593;BMP280;35499;51.482;4.264;2024-01-27T12:10:01;103537.28;;;15.32
49593;BMP280;35499;51.482;4.264;2024-01-27T12:12:26;103532.06;;;15.28
49593;BMP280;35499;51.482;4.264;2024-01-27T12:14:51;103532.06;;;15.28
49593;BMP280;35499;51.482;4.264;2024-01-27T12:17:18;103536.19;;;15.08
49593;BMP280;35499;51.482;4.264;2024-01-27T12:19:51;103526.53;;;14.94
49593;BMP280;35499;51.482;4.264;2024-01-27T12:22:23;103518.75;;;14.93
49593;BMP280;35499;51.482;4.264;2024-01-27T12:24:49;103518.88;;;15.03
49593;BMP280;35499;51.482;4.264;2024-01-27T12:27:18;103508.63;;;15.16
49593;BMP280;35499;51.482;4.264;2024-01-27T12:29:43;103502.66;;;15.24
49593;BMP280;35499;51.482;4.264;2024-01-27T12:32:09;103506.00;;;15.15
49593;BMP280;35499;51.482;4.264;2024-01-27T12:34:40;103493.88;;;15.08
49593;BMP280;35499;51.482;4.264;2024-01-27T12:37:07;103489.41;;;14.92
49593;BMP280;35499;51.482;4.264;2024-01-27T12:39:32;103482.28;;;14.74
49593;BMP280;35499;51.482;4.264;2024-01-27T12:41:57;103481.25;;;14.59
49593;BMP280;35499;51.482;4.264;2024-01-27T12:44:23;103486.13;;;14.34
49593;BMP280;35499;51.482;4.264;2024-01-27T12:46:48;103481.63;;;14.18
49593;BMP280;35499;51.482;4.264;2024-01-27T12:49:14;103492.63;;;14.06
49593;BMP280;35499;51.482;4.264;2024-01-27T12:51:39;103500.22;;;13.94
49593;BMP280;35499;51.482;4.264;2024-01-27T12:54:04;103494.13;;;13.89
49593;BMP280;35499;51.482;4.264;2024-01-27T12:56:30;103491.47;;;13.86
49593;BMP280;35499;51.482;4.264;2024-01-27T12:58:55;103496.41;;;13.72
49593;BMP280;35499;51.482;4.264;2024-01-27T13:01:20;103491.19;;;13.70
49593;BMP280;35499;51.482;4.264;2024-01-27T13:03:46;103488.72;;;13.75
49593;BMP280;35499;51.482;4.264;2024-01-27T13:06:11;103491.84;;;13.56
49593;BMP280;35499;51.482;4.264;2024-01-27T13:08:37;103490.53;;;13.28
49593;BMP280;35499;51.482;4.264;2024-01-27T13:11:03;103485.97;;;13.15
49593;BMP280;35499;51.482;4.264;2024-01-27T13:13:28;103490.88;;;12.99
49593;BMP280;35499;51.482;4.264;2024-01-27T13:15:54;103479.47;;;12.87
49593;BMP280;35499;51.482;4.264;2024-01-27T13:18:19;103488.72;;;12.76
49593;BMP280;35499;51.482;4.264;2024-01-27T13:20:44;103493.19;;;12.85
49593;BMP280;35499;51.482;4.264;2024-01-27T13:23:10;103492.47;;;12.93
49593;BMP280;35499;51.482;4.264;2024-01-27T13:25:35;103484.97;;;13.05
49593;BMP280;35499;51.482;4.264;2024-01-27T13:28:02;103490.84;;;12.98
49593;BMP280;35499;51.482;4.264;2024-01-27T13:30:28;103485.53;;;12.89
49593;BMP280;35499;51.482;4.264;2024-01-27T13:32:53;103491.44;;;12.84
49593;BMP280;35499;51.482;4.264;2024-01-27T13:35:19;103489.66;;;12.81
49593;BMP280;35499;51.482;4.264;2024-01-27T13:37:44;103502.50;;;12.78
49593;BMP280;35499;51.482;4.264;2024-01-27T13:40:11;103488.59;;;12.70
49593;BMP280;35499;51.482;4.264;2024-01-27T13:42:36;103497.94;;;12.66
49593;BMP280;35499;51.482;4.264;2024-01-27T13:45:02;103489.97;;;12.55
49593;BMP280;35499;51.482;4.264;2024-01-27T13:47:28;103492.25;;;12.41
49593;BMP280;35499;51.482;4.264;2024-01-27T13:49:53;103495.47;;;12.30
49593;BMP280;35499;51.482;4.264;2024-01-27T13:52:19;103496.03;;;12.17
49593;BMP280;35499;51.482;4.264;2024-01-27T13:54:44;103490.59;;;12.04
49593;BMP280;35499;51.482;4.264;2024-01-27T13:57:10;103476.66;;;11.95
49593;BMP280;35499;51.482;4.264;2024-01-27T13:59:38;103467.88;;;11.87